Time;durP1;ratioP1;P1;durP2;ratioP2;P2;SDS_P1;SDS_P2;PMS_P1;PMS_P2;Temp;Humidity;BMP_temperature;BMP_pressure;BME280_temperature;BME280_humidity;BME280_pressure;Samples;Min_cycle;Max_cycle;Signal;HPM_P1;HPM_P2
2022/11/06 00:00:39;;;;;;;10.95;9.68;;;10.10;99.90;;;;;;4959211;28;90303;-33
2022/11/06 00:03:07;;;;;;;12.27;8.73;;;10.00;99.90;;;;;;4958967;28;90310;-30
2022/11/06 00:08:49;;;;;;;16.55;9.85;;;10.10;99.90;;;;;;4959557;28;89764;-29
2022/11/06 00:11:17;;;;;;;14.10;9.60;;;10.00;99.90;;;;;;4947280;28;90471;-29
2022/11/06 00:13:43;;;;;;;12.02;9.45;;;10.00;99.90;;;;;;4959553;28;90984;-29
2022/11/06 00:16:12;;;;;;;15.73;10.35;;;10.00;99.90;;;;;;4959142;28;89900;-30
2022/11/06 00:18:39;;;;;;;14.68;9.18;;;10.10;99.90;;;;;;4958779;28;88736;-30
2022/11/06 00:21:13;;;;;;;13.52;10.50;;;10.10;99.90;;;;;;4959790;28;90457;-31
2022/11/06 00:23:39;;;;;;;14.85;9.43;;;10.00;99.90;;;;;;4958225;28;91016;-29
2022/11/06 00:26:11;;;;;;;14.30;10.45;;;10.10;99.90;;;;;;4959219;28;89697;-30
2022/11/06 00:28:37;;;;;;;12.27;9.20;;;10.00;99.90;;;;;;4958400;28;89208;-29
2022/11/06 00:31:09;;;;;;;9.20;8.25;;;10.00;99.90;;;;;;4959571;28;90185;-28
2022/11/06 00:33:35;;;;;;;9.80;8.77;;;10.00;99.90;;;;;;4958936;28;89345;-32
2022/11/06 00:36:05;;;;;;;13.32;9.57;;;10.00;99.90;;;;;;4959315;28;89680;-29
2022/11/06 00:38:31;;;;;;;13.65;9.52;;;10.10;99.90;;;;;;4959013;28;88110;-31
2022/11/06 00:41:00;;;;;;;12.68;10.05;;;10.00;99.90;;;;;;4958110;28;90115;-29
2022/11/06 00:43:25;;;;;;;15.02;9.95;;;10.00;99.90;;;;;;4958340;28;90052;-28
2022/11/06 00:45:51;;;;;;;14.10;9.65;;;10.10;99.90;;;;;;4958966;28;89165;-30
2022/11/06 00:48:17;;;;;;;12.10;10.38;;;10.10;99.90;;;;;;4958433;28;90349;-31
2022/11/06 00:50:42;;;;;;;15.57;10.48;;;10.00;99.90;;;;;;4958253;28;89834;-31
2022/11/06 00:53:08;;;;;;;16.85;10.10;;;10.00;99.90;;;;;;4957907;28;89463;-29
2022/11/06 00:55:33;;;;;;;14.68;10.63;;;10.00;99.90;;;;;;4957711;28;89549;-31
2022/11/06 00:57:59;;;;;;;12.38;9.38;;;10.00;99.90;;;;;;4959009;28;89873;-28
2022/11/06 01:00:25;;;;;;;12.52;9.65;;;10.00;99.90;;;;;;4959935;28;90335;-27
2022/11/06 01:02:50;;;;;;;16.10;11.20;;;10.00;99.90;;;;;;4961942;28;90323;-32
2022/11/06 01:05:16;;;;;;;11.75;8.98;;;10.00;99.90;;;;;;4961252;28;89569;-31
2022/11/06 01:07:41;;;;;;;16.45;9.85;;;10.00;99.90;;;;;;4961883;28;88750;-32
2022/11/06 01:10:07;;;;;;;12.88;10.60;;;9.90;99.90;;;;;;4960850;28;92022;-31
2022/11/06 01:12:34;;;;;;;11.43;9.88;;;9.90;99.90;;;;;;4960438;28;92138;-31
2022/11/06 01:15:00;;;;;;;11.40;9.50;;;9.80;99.90;;;;;;4962809;28;90259;-30
2022/11/06 01:17:26;;;;;;;14.75;11.05;;;9.80;99.90;;;;;;4962350;28;88703;-29
2022/11/06 01:19:52;;;;;;;13.90;9.45;;;9.80;99.90;;;;;;4960558;28;89769;-32
2022/11/06 01:22:17;;;;;;;14.80;9.85;;;9.80;99.90;;;;;;4962246;28;89758;-28
2022/11/06 01:24:43;;;;;;;10.27;9.18;;;9.80;99.90;;;;;;4961501;28;89724;-28
2022/11/06 01:27:08;;;;;;;13.00;9.85;;;9.80;99.90;;;;;;4962031;28;90559;-31
2022/11/06 01:29:34;;;;;;;16.38;8.98;;;9.80;99.90;;;;;;4961766;28;89315;-31
2022/11/06 01:32:00;;;;;;;11.60;9.18;;;9.80;99.90;;;;;;4961065;28;89953;-30
2022/11/06 01:34:26;;;;;;;14.25;9.93;;;9.90;99.90;;;;;;4961622;28;91752;-31
2022/11/06 01:36:52;;;;;;;15.10;10.13;;;9.90;99.90;;;;;;4960918;28;90313;-30
2022/11/06 01:39:17;;;;;;;10.65;9.60;;;9.90;99.90;;;;;;4961693;28;90493;-31
2022/11/06 01:41:49;;;;;;;16.58;9.82;;;9.90;99.90;;;;;;4958719;28;89742;-30
2022/11/06 01:44:34;;;;;;;12.98;8.80;;;9.90;99.90;;;;;;4961613;28;89891;-29
2022/11/06 01:47:01;;;;;;;11.45;9.45;;;9.80;99.90;;;;;;4948396;28;89391;-29
2022/11/06 01:49:31;;;;;;;15.57;11.00;;;9.70;99.90;;;;;;4962234;28;89457;-32
2022/11/06 01:52:04;;;;;;;17.35;10.13;;;9.70;99.90;;;;;;4960967;28;88700;-31
2022/11/06 01:54:32;;;;;;;15.05;10.25;;;9.70;99.90;;;;;;4960124;28;89451;-31
2022/11/06 01:57:00;;;;;;;10.27;9.27;;;9.70;99.90;;;;;;4960594;28;89836;-28
2022/11/06 01:59:28;;;;;;;11.70;10.40;;;9.60;99.90;;;;;;4961056;28;89787;-31
2022/11/06 02:01:54;;;;;;;15.88;9.50;;;9.60;99.90;;;;;;4960622;28;90505;-30
2022/11/06 02:04:21;;;;;;;11.43;9.65;;;9.60;99.90;;;;;;4960824;28;90669;-31
2022/11/06 02:06:47;;;;;;;12.05;10.02;;;9.60;99.90;;;;;;4959501;28;88975;-30
2022/11/06 02:09:14;;;;;;;14.82;9.65;;;9.50;99.90;;;;;;4960652;28;89849;-29
2022/11/06 02:11:42;;;;;;;12.85;10.82;;;9.50;99.90;;;;;;4960361;28;89540;-33
2022/11/06 02:14:18;;;;;;;14.98;10.60;;;9.50;99.90;;;;;;4960129;28;89965;-30
2022/11/06 02:17:20;;;;;;;11.30;9.45;;;9.50;99.90;;;;;;4960506;28;89658;-32
2022/11/06 02:20:01;;;;;;;10.27;9.23;;;9.40;99.90;;;;;;4960617;28;90355;-31
2022/11/06 02:23:04;;;;;;;11.73;10.52;;;9.50;99.90;;;;;;4961091;28;89283;-29
2022/11/06 02:25:39;;;;;;;10.18;9.05;;;9.50;99.90;;;;;;4948450;28;91573;-30
2022/11/06 02:28:25;;;;;;;13.73;11.23;;;9.50;99.90;;;;;;4961237;28;89663;-29
2022/11/06 02:30:53;;;;;;;17.75;10.63;;;9.50;99.90;;;;;;4960675;28;91146;-30
2022/11/06 02:33:29;;;;;;;12.17;9.83;;;9.40;99.90;;;;;;4959831;28;90020;-30
2022/11/06 02:36:02;;;;;;;17.73;11.55;;;9.40;99.90;;;;;;4960954;28;89644;-29
2022/11/06 02:38:34;;;;;;;15.27;9.82;;;9.30;99.90;;;;;;4959985;28;88149;-28
2022/11/06 02:41:04;;;;;;;14.05;9.27;;;9.30;99.90;;;;;;4960616;28;90538;-30
2022/11/06 02:43:44;;;;;;;11.13;8.40;;;9.30;99.90;;;;;;4959817;28;89645;-29
2022/11/06 02:46:34;;;;;;;14.57;10.30;;;9.40;99.90;;;;;;4961213;28;89565;-31
2022/11/06 02:49:06;;;;;;;21.63;10.10;;;9.30;99.90;;;;;;4959145;28;89550;-31
2022/11/06 02:51:36;;;;;;;15.30;10.80;;;9.20;99.90;;;;;;4960211;28;89738;-31
2022/11/06 02:54:05;;;;;;;14.18;10.10;;;9.20;99.90;;;;;;4958965;28;90675;-29
2022/11/06 02:56:36;;;;;;;;;;;9.20;99.90;;;;;;4960042;28;89789;-28
2022/11/06 02:59:11;;;;;;;17.02;10.82;;;9.20;99.90;;;;;;4961500;28;89297;-29
2022/11/06 03:01:43;;;;;;;13.18;9.60;;;9.20;99.90;;;;;;4959960;28;89718;-32
2022/11/06 03:04:21;;;;;;;20.73;10.68;;;9.20;99.90;;;;;;4960183;28;88438;-28
2022/11/06 03:07:03;;;;;;;20.00;10.45;;;9.10;99.90;;;;;;4959569;28;89929;-28
2022/11/06 03:09:31;;;;;;;9.70;8.80;;;9.10;99.90;;;;;;4957738;28;89841;-30
2022/11/06 03:12:20;;;;;;;13.18;8.73;;;9.20;99.90;;;;;;4959764;28;90850;-30
2022/11/06 03:14:58;;;;;;;11.32;9.23;;;9.20;99.90;;;;;;4954826;28;89680;-30
2022/11/06 03:17:42;;;;;;;10.07;9.05;;;9.10;99.90;;;;;;4959329;28;89728;-31
2022/11/06 03:20:33;;;;;;;11.70;9.38;;;9.20;99.90;;;;;;4959753;28;89809;-28
2022/11/06 03:23:09;;;;;;;12.55;9.30;;;9.20;99.90;;;;;;4957219;28;90159;-29
2022/11/06 03:25:46;;;;;;;10.95;8.27;;;9.20;99.90;;;;;;4960179;28;89865;-30
2022/11/06 03:28:30;;;;;;;10.68;8.70;;;9.10;99.90;;;;;;4960193;28;90752;-28
2022/11/06 03:31:00;;;;;;;15.95;10.18;;;9.10;99.90;;;;;;4959637;28;89943;-31
2022/11/06 03:33:37;;;;;;;17.52;9.57;;;9.20;99.90;;;;;;4958552;28;90361;-29
2022/11/06 03:36:20;;;;;;;16.42;9.77;;;9.10;99.90;;;;;;4959886;28;89697;-33
2022/11/06 03:38:50;;;;;;;13.18;9.10;;;9.10;99.90;;;;;;4948299;28;89919;-30
2022/11/06 03:41:29;;;;;;;10.85;8.90;;;9.10;99.90;;;;;;4959722;28;88872;-31
2022/11/06 03:43:59;;;;;;;12.18;7.50;;;9.10;99.90;;;;;;4959587;28;90441;-29
2022/11/06 03:46:27;;;;;;;11.23;8.68;;;9.20;99.90;;;;;;4959194;28;90413;-30
2022/11/06 03:49:00;;;;;;;15.10;9.23;;;9.10;99.90;;;;;;4959090;28;90801;-30
2022/11/06 03:51:38;;;;;;;8.55;7.68;;;9.20;99.90;;;;;;4960364;28;88296;-31
2022/11/06 03:54:30;;;;;;;12.73;8.63;;;9.20;99.90;;;;;;4959023;28;90981;-29
2022/11/06 03:57:12;;;;;;;11.07;9.20;;;9.10;99.90;;;;;;4959153;28;90052;-31
2022/11/06 03:59:43;;;;;;;11.02;7.72;;;9.20;99.90;;;;;;4947567;28;90167;-28
2022/11/06 04:02:12;;;;;;;12.13;9.00;;;9.20;99.90;;;;;;4959377;28;89074;-29
2022/11/06 04:04:44;;;;;;;9.20;7.18;;;9.20;99.90;;;;;;4959663;28;90442;-31
2022/11/06 04:07:16;;;;;;;11.88;7.78;;;9.20;99.90;;;;;;4959852;28;89661;-29
2022/11/06 04:15:20;;;;;;;11.02;8.27;;;9.10;99.90;;;;;;4960101;28;90198;-31
2022/11/06 04:17:45;;;;;;;8.73;7.32;;;9.10;99.90;;;;;;4958889;28;90208;-29
2022/11/06 04:21:20;;;;;;;9.88;7.90;;;9.20;99.90;;;;;;4959042;28;89809;-28
2022/11/06 04:23:18;;;;;;;11.40;7.63;;;9.10;99.90;;;;;;4958749;28;88583;-30
2022/11/06 04:28:58;;;;;;;10.20;7.75;;;9.10;99.90;;;;;;4959115;28;90140;-29
2022/11/06 04:31:39;;;;;;;16.17;9.15;;;9.10;99.90;;;;;;4958865;28;90101;-29
2022/11/06 04:34:42;;;;;;;16.73;7.80;;;9.10;99.90;;;;;;4958995;28;89860;-29
2022/11/06 04:37:16;;;;;;;14.45;7.65;;;9.10;99.90;;;;;;4951753;28;90035;-31
2022/11/06 04:39:59;;;;;;;18.13;7.88;;;9.00;99.90;;;;;;4994926;22;90623;-31
2022/11/06 04:42:38;;;;;;;7.53;6.70;;;9.00;99.90;;;;;;4942758;28;90961;-29
2022/11/06 04:45:10;;;;;;;10.88;7.75;;;9.10;99.90;;;;;;4942838;28;89540;-29
2022/11/06 04:47:37;;;;;;;7.45;6.47;;;9.10;99.90;;;;;;4942690;28;90194;-31
2022/11/06 04:50:06;;;;;;;14.55;7.20;;;9.00;99.90;;;;;;4930109;28;89358;-29
2022/11/06 04:52:33;;;;;;;11.52;7.03;;;9.10;99.90;;;;;;4942419;28;89427;-29
2022/11/06 04:54:59;;;;;;;9.18;7.43;;;9.10;99.90;;;;;;4942847;28;89500;-30
2022/11/06 04:57:25;;;;;;;11.52;7.28;;;9.00;99.90;;;;;;4943473;28;90752;-28
2022/11/06 04:59:51;;;;;;;10.98;5.78;;;9.10;99.90;;;;;;4942821;28;89023;-28
2022/11/06 05:02:17;;;;;;;10.93;7.38;;;9.10;99.90;;;;;;4942446;28;89124;-31
2022/11/06 05:04:44;;;;;;;11.30;8.75;;;9.10;99.90;;;;;;4942382;28;90077;-28
2022/11/06 05:07:12;;;;;;;13.48;7.78;;;9.10;99.90;;;;;;4943181;28;89792;-29
2022/11/06 05:09:38;;;;;;;9.13;8.02;;;9.10;99.90;;;;;;4942178;28;90367;-28
2022/11/06 05:12:03;;;;;;;8.52;7.13;;;9.00;99.90;;;;;;4942353;28;89467;-30
2022/11/06 05:14:31;;;;;;;18.15;7.22;;;9.00;99.90;;;;;;4943689;28;89637;-28
2022/11/06 05:16:57;;;;;;;11.52;6.55;;;8.90;99.90;;;;;;4942181;28;89790;-31
2022/11/06 05:19:22;;;;;;;14.88;6.75;;;9.00;99.90;;;;;;4942227;28;90042;-30
2022/11/06 05:24:32;;;;;;;12.38;7.35;;;8.90;99.90;;;;;;4942349;28;88791;-31
2022/11/06 05:26:58;;;;;;;12.15;6.88;;;9.00;99.90;;;;;;4940977;28;92187;-29
2022/11/06 05:29:23;;;;;;;11.43;6.95;;;8.90;99.90;;;;;;4941436;28;90668;-28
2022/11/06 05:31:49;;;;;;;11.25;6.65;;;9.00;99.90;;;;;;4942318;28;90256;-28
2022/11/06 05:34:14;;;;;;;9.98;7.28;;;9.00;99.90;;;;;;4942052;28;89481;-27
2022/11/06 05:36:40;;;;;;;10.48;6.22;;;9.00;99.90;;;;;;4942034;28;90098;-31
2022/11/06 05:39:05;;;;;;;11.32;7.40;;;8.90;99.90;;;;;;4942193;28;89650;-31
2022/11/06 05:41:31;;;;;;;10.93;6.30;;;8.90;99.90;;;;;;4941389;28;90599;-32
2022/11/06 05:43:57;;;;;;;11.95;6.63;;;8.90;99.90;;;;;;4940736;28;88290;-28
2022/11/06 05:46:22;;;;;;;9.70;6.75;;;9.00;99.90;;;;;;4940682;28;90727;-29
2022/11/06 05:48:48;;;;;;;10.65;5.88;;;9.00;99.90;;;;;;4941416;28;89805;-28
2022/11/06 05:51:14;;;;;;;8.60;5.45;;;9.00;99.90;;;;;;4941938;28;89906;-31
2022/11/06 05:53:39;;;;;;;9.60;4.88;;;9.00;99.90;;;;;;4941710;28;90806;-33
2022/11/06 05:56:05;;;;;;;10.20;5.82;;;9.00;99.90;;;;;;4941955;28;88594;-30
2022/11/06 05:58:31;;;;;;;7.70;5.97;;;9.00;99.90;;;;;;4941507;28;90021;-28
2022/11/06 06:00:57;;;;;;;12.55;6.30;;;9.00;99.90;;;;;;4942061;28;89306;-31
2022/11/06 06:03:24;;;;;;;12.23;7.25;;;9.00;99.90;;;;;;4941490;28;90060;-29
2022/11/06 06:05:50;;;;;;;6.65;5.50;;;9.10;99.90;;;;;;4941098;28;90307;-30
2022/11/06 06:08:16;;;;;;;7.95;5.88;;;9.00;99.90;;;;;;4941395;28;89864;-31
2022/11/06 06:10:43;;;;;;;10.77;5.47;;;9.00;99.90;;;;;;4941393;28;89036;-28
2022/11/06 06:13:09;;;;;;;8.15;4.82;;;9.00;99.90;;;;;;4942004;28;89320;-29
2022/11/06 06:15:38;;;;;;;7.53;4.78;;;9.10;99.90;;;;;;4942387;28;90204;-29
2022/11/06 06:18:04;;;;;;;7.43;5.80;;;9.10;99.90;;;;;;4940741;28;90295;-29
2022/11/06 06:20:31;;;;;;;7.30;4.80;;;9.10;99.90;;;;;;4940968;28;89693;-28
2022/11/06 06:22:57;;;;;;;13.98;5.85;;;9.20;99.90;;;;;;4941591;28;87986;-29
2022/11/06 06:25:24;;;;;;;9.15;5.22;;;9.20;99.90;;;;;;4941197;28;90254;-29
2022/11/06 06:27:51;;;;;;;12.18;5.40;;;9.20;99.90;;;;;;4941015;28;89887;-29
2022/11/06 06:30:17;;;;;;;14.00;5.72;;;9.20;99.90;;;;;;4941379;28;89494;-28
2022/11/06 06:32:42;;;;;;;7.35;5.47;;;9.20;99.90;;;;;;4937545;28;88651;-33
2022/11/06 06:35:08;;;;;;;6.18;5.38;;;9.20;99.90;;;;;;4941220;28;90302;-29
2022/11/06 06:37:34;;;;;;;8.18;4.78;;;9.20;99.90;;;;;;4941318;28;90068;-30
2022/11/06 06:39:59;;;;;;;6.60;5.15;;;9.20;99.90;;;;;;4940119;28;89426;-31
2022/11/06 06:42:27;;;;;;;5.82;4.18;;;9.20;99.90;;;;;;4941310;28;88900;-28
2022/11/06 06:44:53;;;;;;;13.00;5.03;;;9.20;99.90;;;;;;4940990;28;89606;-28
2022/11/06 06:47:18;;;;;;;6.63;4.57;;;9.20;99.90;;;;;;4940832;28;90084;-29
2022/11/06 06:49:44;;;;;;;6.55;4.03;;;9.20;99.90;;;;;;4930722;28;89903;-27
2022/11/06 06:52:11;;;;;;;8.75;5.00;;;9.30;99.90;;;;;;4952720;28;88991;-29
2022/11/06 06:54:36;;;;;;;8.00;5.28;;;9.30;99.90;;;;;;4940991;28;89900;-31
2022/11/06 06:57:03;;;;;;;6.30;4.40;;;9.30;99.90;;;;;;4940669;28;90096;-28
2022/11/06 06:59:29;;;;;;;8.90;4.88;;;9.30;99.90;;;;;;4940303;28;90056;-30
2022/11/06 07:01:55;;;;;;;6.82;4.53;;;9.40;99.90;;;;;;4941646;28;90407;-27
2022/11/06 07:04:20;;;;;;;12.30;4.22;;;9.40;99.90;;;;;;4940266;28;90504;-29
2022/11/06 07:06:46;;;;;;;12.63;5.32;;;9.40;99.90;;;;;;4939299;28;90455;-30
2022/11/06 07:09:12;;;;;;;11.23;4.70;;;9.40;99.90;;;;;;4940443;28;90467;-28
2022/11/06 07:11:38;;;;;;;11.57;4.80;;;9.60;99.90;;;;;;4940774;28;89242;-31
2022/11/06 07:14:03;;;;;;;5.43;4.50;;;9.50;99.90;;;;;;4940679;28;90305;-28
2022/11/06 07:16:31;;;;;;;11.75;5.20;;;9.60;99.90;;;;;;4940419;28;90406;-28
2022/11/06 07:18:57;;;;;;;9.25;5.53;;;9.50;99.90;;;;;;4939960;28;89617;-29
2022/11/06 07:21:22;;;;;;;16.45;4.53;;;9.60;99.90;;;;;;4941389;28;89194;-32
2022/11/06 07:23:48;;;;;;;8.52;4.57;;;9.60;99.90;;;;;;4940226;28;90422;-32
2022/11/06 07:26:14;;;;;;;5.72;3.78;;;9.60;99.90;;;;;;4939729;28;90209;-31
2022/11/06 07:28:40;;;;;;;15.13;5.43;;;9.60;99.90;;;;;;4940398;28;89628;-31
2022/11/06 07:31:06;;;;;;;9.50;4.90;;;9.60;99.90;;;;;;4939893;28;90399;-32
2022/11/06 07:33:33;;;;;;;8.68;4.85;;;9.60;99.90;;;;;;4940867;28;90444;-29
2022/11/06 07:36:10;;;;;;;13.25;4.18;;;9.70;99.90;;;;;;4940990;28;91162;-29
2022/11/06 07:38:37;;;;;;;6.55;4.47;;;9.70;99.90;;;;;;4940468;28;89480;-32
2022/11/06 07:41:04;;;;;;;10.18;3.88;;;9.80;99.90;;;;;;4939400;28;89619;-34
2022/11/06 07:43:30;;;;;;;12.18;4.55;;;9.70;99.90;;;;;;4938954;28;90658;-32
2022/11/06 07:46:04;;;;;;;7.88;4.18;;;9.70;99.90;;;;;;4939697;28;90818;-33
2022/11/06 07:48:31;;;;;;;11.90;4.82;;;9.80;99.90;;;;;;4940136;28;89460;-30
2022/11/06 07:51:00;;;;;;;8.13;4.25;;;9.80;99.90;;;;;;4927175;28;89630;-31
2022/11/06 07:53:26;;;;;;;;;;;9.90;99.90;;;;;;4940066;28;90231;-33
2022/11/06 07:55:53;;;;;;;5.28;4.38;;;9.90;99.90;;;;;;4939625;28;90595;-31
2022/11/06 07:58:20;;;;;;;8.65;4.05;;;10.00;99.90;;;;;;4939942;28;90547;-29
2022/11/06 08:00:54;;;;;;;11.48;5.10;;;10.00;99.90;;;;;;4939970;28;89279;-31
2022/11/06 08:03:20;;;;;;;9.18;4.40;;;10.00;99.90;;;;;;4939423;28;90332;-31
2022/11/06 08:05:46;;;;;;;8.88;3.95;;;10.00;99.90;;;;;;4939029;28;89087;-32
2022/11/06 08:08:12;;;;;;;9.43;4.90;;;10.00;99.90;;;;;;4938971;28;89797;-31
2022/11/06 08:10:39;;;;;;;7.72;4.53;;;10.10;99.90;;;;;;4939348;28;87859;-33
2022/11/06 08:13:08;;;;;;;6.00;4.53;;;10.10;99.90;;;;;;4940520;28;90291;-29
2022/11/06 08:15:36;;;;;;;11.35;4.05;;;10.10;99.90;;;;;;4939689;28;90188;-31
2022/11/06 08:18:02;;;;;;;4.78;3.22;;;10.10;99.90;;;;;;4935575;28;89527;-30
2022/11/06 08:20:28;;;;;;;11.57;4.35;;;10.20;99.90;;;;;;4921041;28;89155;-30
2022/11/06 08:23:01;;;;;;;7.43;4.40;;;10.20;99.90;;;;;;4937266;28;90307;-31
2022/11/06 08:25:27;;;;;;;7.15;4.40;;;10.30;99.90;;;;;;4940035;28;89079;-31
2022/11/06 08:27:57;;;;;;;8.18;3.20;;;10.40;99.90;;;;;;4939570;28;90525;-29
2022/11/06 08:30:22;;;;;;;8.38;5.07;;;10.40;99.90;;;;;;4939451;28;87700;-31
2022/11/06 08:32:48;;;;;;;4.93;3.83;;;10.40;99.90;;;;;;4938971;28;90069;-30
2022/11/06 08:35:14;;;;;;;6.53;3.97;;;10.30;99.90;;;;;;4939604;28;89734;-29
2022/11/06 08:37:40;;;;;;;6.30;4.63;;;10.40;99.90;;;;;;4938755;28;90099;-33
2022/11/06 08:40:06;;;;;;;5.93;4.10;;;10.40;99.90;;;;;;4926952;28;89259;-34
2022/11/06 08:42:31;;;;;;;8.75;4.18;;;10.50;99.90;;;;;;4939451;28;90329;-28
2022/11/06 08:44:57;;;;;;;5.47;3.58;;;10.60;99.90;;;;;;4934839;28;91188;-31
2022/11/06 08:47:23;;;;;;;9.90;3.92;;;10.60;99.90;;;;;;4930278;28;89819;-31
2022/11/06 08:49:48;;;;;;;5.70;2.88;;;10.60;99.90;;;;;;4930713;28;88563;-31
2022/11/06 08:52:14;;;;;;;8.60;3.50;;;10.70;99.90;;;;;;4935121;28;90288;-31
2022/11/06 08:54:39;;;;;;;6.65;3.45;;;10.80;99.90;;;;;;4921851;28;90462;-34
2022/11/06 08:57:05;;;;;;;5.50;3.40;;;10.80;99.90;;;;;;4942520;28;89577;-32
2022/11/06 08:59:31;;;;;;;5.15;3.50;;;10.80;99.90;;;;;;4947446;28;87633;-31
2022/11/06 09:01:57;;;;;;;12.05;4.07;;;10.90;99.90;;;;;;4938228;28;90655;-30
2022/11/06 09:04:23;;;;;;;10.25;3.88;;;10.90;99.90;;;;;;4938899;28;89889;-32
2022/11/06 09:06:49;;;;;;;7.75;4.18;;;11.10;99.90;;;;;;4938609;28;88813;-31
2022/11/06 09:09:14;;;;;;;4.60;4.00;;;11.10;99.90;;;;;;4937288;28;90390;-32
2022/11/06 09:11:40;;;;;;;7.97;3.88;;;11.20;99.90;;;;;;4936325;28;93440;-31
2022/11/06 09:14:05;;;;;;;6.97;4.40;;;11.30;99.90;;;;;;4934802;28;89840;-32
2022/11/06 09:16:31;;;;;;;6.40;3.45;;;11.30;99.90;;;;;;4936924;28;89573;-33
2022/11/06 09:18:58;;;;;;;7.22;3.75;;;11.40;99.90;;;;;;4936686;28;88713;-33
2022/11/06 09:21:24;;;;;;;5.53;3.13;;;11.50;99.90;;;;;;4936964;28;89800;-30
2022/11/06 09:23:50;;;;;;;5.55;3.50;;;11.60;99.90;;;;;;4940204;28;89405;-32
2022/11/06 09:26:16;;;;;;;3.33;3.05;;;11.70;99.90;;;;;;4940424;28;89345;-30
2022/11/06 09:28:42;;;;;;;9.32;4.03;;;11.70;99.90;;;;;;4940258;28;89237;-30
2022/11/06 09:31:08;;;;;;;5.78;3.83;;;11.80;99.90;;;;;;4939780;28;90265;-34
2022/11/06 09:33:33;;;;;;;7.28;4.15;;;11.80;99.90;;;;;;4939428;28;90515;-31
2022/11/06 09:36:03;;;;;;;7.05;3.60;;;11.70;99.90;;;;;;4939938;28;90246;-31
2022/11/06 09:38:28;;;;;;;10.52;3.35;;;11.70;99.90;;;;;;4939954;28;88645;-32
2022/11/06 09:40:59;;;;;;;6.03;3.88;;;11.90;99.90;;;;;;4938359;28;90470;-31
2022/11/06 09:44:08;;;;;;;8.23;3.67;;;11.90;99.90;;;;;;4939753;28;90192;-32
2022/11/06 09:46:40;;;;;;;11.70;5.25;;;12.00;99.90;;;;;;4933627;28;90766;-32
2022/11/06 09:49:21;;;;;;;7.65;3.75;;;12.00;99.90;;;;;;4934980;28;89917;-31
2022/11/06 09:52:01;;;;;;;6.50;3.53;;;12.10;99.90;;;;;;4933249;28;88768;-35
2022/11/06 09:54:47;;;;;;;4.65;3.35;;;12.10;99.90;;;;;;4927800;28;89849;-31
2022/11/06 09:57:24;;;;;;;5.05;2.67;;;12.00;99.90;;;;;;4940137;28;89260;-32
2022/11/06 09:59:50;;;;;;;5.90;3.17;;;11.90;99.90;;;;;;4939418;28;89748;-31
2022/11/06 10:02:46;;;;;;;8.10;3.35;;;11.90;99.90;;;;;;4939067;28;90345;-31
2022/11/06 10:05:17;;;;;;;8.18;3.75;;;12.00;99.90;;;;;;4939400;28;89703;-30
2022/11/06 10:07:45;;;;;;;3.55;3.25;;;12.00;99.90;;;;;;4937596;28;89616;-30
2022/11/06 10:10:16;;;;;;;6.20;3.40;;;12.00;99.90;;;;;;4939393;28;88704;-30
2022/11/06 10:12:51;;;;;;;5.03;3.58;;;12.00;99.90;;;;;;4938913;28;90472;-32
2022/11/06 10:15:21;;;;;;;9.45;3.20;;;12.00;99.90;;;;;;4939576;28;89521;-31
2022/11/06 10:18:17;;;;;;;5.45;3.05;;;12.00;99.90;;;;;;4939544;28;89679;-28
2022/11/06 10:20:52;;;;;;;4.93;3.13;;;12.10;99.90;;;;;;4940793;28;87977;-30
2022/11/06 10:23:35;;;;;;;6.80;3.33;;;12.00;99.90;;;;;;4926151;28;90265;-30
2022/11/06 10:26:16;;;;;;;4.88;3.00;;;12.10;99.90;;;;;;4938793;28;90870;-30
2022/11/06 10:28:52;;;;;;;7.32;3.38;;;12.20;99.90;;;;;;4939627;28;90712;-33
2022/11/06 10:31:42;;;;;;;7.38;3.22;;;12.20;99.90;;;;;;4939508;28;88372;-30
2022/11/06 10:34:20;;;;;;;5.90;3.92;;;12.20;99.90;;;;;;4939388;28;90103;-29
2022/11/06 10:37:04;;;;;;;4.95;3.55;;;12.20;99.90;;;;;;4938477;28;90166;-33
2022/11/06 10:39:32;;;;;;;3.00;2.40;;;12.30;99.90;;;;;;4938639;28;89855;-32
2022/11/06 10:42:18;;;;;;;6.70;3.15;;;12.40;99.90;;;;;;4939413;28;89423;-29
2022/11/06 10:45:10;;;;;;;12.65;3.30;;;12.40;99.90;;;;;;4932235;28;90234;-34
2022/11/06 10:47:59;;;;;;;8.35;3.15;;;12.60;99.90;;;;;;4927313;28;90080;-30
2022/11/06 10:50:39;;;;;;;6.78;2.42;;;12.80;99.90;;;;;;4918771;28;89427;-31
2022/11/06 10:53:17;;;;;;;10.45;3.05;;;12.90;99.90;;;;;;4937938;28;88995;-32
2022/11/06 10:55:52;;;;;;;;;;;13.20;99.90;;;;;;4936941;28;90614;-30
2022/11/06 10:58:21;;;;;;;3.15;2.50;;;13.40;99.90;;;;;;4939146;28;89610;-32
2022/11/06 11:00:48;;;;;;;4.03;2.95;;;13.40;99.90;;;;;;4937747;28;89545;-30
2022/11/06 11:03:27;;;;;;;6.30;2.67;;;13.30;99.90;;;;;;4937586;28;89822;-29
2022/11/06 11:05:54;;;;;;;12.82;3.28;;;13.20;99.90;;;;;;4937169;28;90433;-32
2022/11/06 11:08:36;;;;;;;6.82;2.80;;;13.20;99.90;;;;;;4937703;28;90015;-30
2022/11/06 11:11:09;;;;;;;5.72;2.67;;;13.00;99.90;;;;;;4937570;28;89602;-30
2022/11/06 11:13:34;;;;;;;10.27;3.00;;;12.90;99.90;;;;;;4938054;28;89143;-32
2022/11/06 11:16:02;;;;;;;8.18;3.38;;;12.80;99.90;;;;;;4937201;28;90284;-33
2022/11/06 11:18:31;;;;;;;3.33;2.17;;;12.70;99.90;;;;;;4937177;28;90900;-30
2022/11/06 11:21:25;;;;;;;3.25;2.28;;;12.70;99.90;;;;;;4927609;28;90224;-32
2022/11/06 11:23:59;;;;;;;4.00;2.55;;;12.80;99.90;;;;;;4937081;28;88206;-31
2022/11/06 11:26:30;;;;;;;3.65;2.50;;;13.00;99.90;;;;;;4937219;28;90276;-30
2022/11/06 11:28:58;;;;;;;7.10;2.15;;;13.30;99.90;;;;;;4937012;28;89367;-28
2022/11/06 11:31:34;;;;;;;6.60;2.53;;;13.30;99.90;;;;;;4937865;28;90188;-29
2022/11/06 11:34:03;;;;;;;6.32;2.60;;;13.30;99.90;;;;;;4937858;28;88300;-30
2022/11/06 11:36:59;;;;;;;3.47;2.08;;;13.30;99.90;;;;;;4938185;28;90240;-31
2022/11/06 11:39:29;;;;;;;5.47;2.42;;;13.30;99.90;;;;;;4928876;28;89116;-29
2022/11/06 11:42:14;;;;;;;5.45;1.95;;;13.40;99.90;;;;;;4937359;28;89472;-32
2022/11/06 11:44:40;;;;;;;5.18;2.53;;;13.40;99.90;;;;;;4935852;28;89112;-29
2022/11/06 11:47:19;;;;;;;7.13;2.15;;;13.40;99.90;;;;;;4937655;28;90082;-29
2022/11/06 11:49:44;;;;;;;5.10;2.20;;;13.40;99.90;;;;;;4927014;28;88552;-32
2022/11/06 11:52:15;;;;;;;5.38;2.40;;;13.40;99.90;;;;;;4933981;28;89790;-30
2022/11/06 11:54:49;;;;;;;4.57;2.13;;;13.50;99.90;;;;;;4937248;28;89059;-28
2022/11/06 11:57:26;;;;;;;3.65;2.05;;;13.40;99.90;;;;;;4937303;28;90218;-28
2022/11/06 11:59:56;;;;;;;4.03;2.38;;;13.50;99.90;;;;;;4937435;28;89611;-27
2022/11/06 12:02:24;;;;;;;5.63;2.17;;;13.40;99.90;;;;;;4937016;28;88442;-30
2022/11/06 12:04:57;;;;;;;2.67;1.95;;;13.40;99.90;;;;;;4937498;28;88220;-32
2022/11/06 12:07:32;;;;;;;7.65;2.17;;;13.30;99.90;;;;;;4937869;28;89854;-32
2022/11/06 12:10:00;;;;;;;3.50;2.13;;;13.30;99.90;;;;;;4936395;28;90687;-28
2022/11/06 12:12:30;;;;;;;7.43;2.40;;;13.30;99.90;;;;;;4937066;28;90725;-30
2022/11/06 12:15:20;;;;;;;4.03;1.90;;;13.30;99.90;;;;;;4937049;28;89677;-27
2022/11/06 12:17:56;;;;;;;4.78;1.95;;;13.30;99.90;;;;;;4937077;28;90326;-31
2022/11/06 12:20:39;;;;;;;4.18;2.67;;;13.30;99.90;;;;;;4936590;28;89736;-29
2022/11/06 12:23:15;;;;;;;5.53;2.30;;;13.40;99.90;;;;;;4935851;28;90761;-29
2022/11/06 12:25:43;;;;;;;2.95;2.20;;;13.30;99.90;;;;;;4937342;28;89690;-30
2022/11/06 12:28:15;;;;;;;7.45;3.17;;;13.30;99.90;;;;;;4936812;28;89486;-29
2022/11/06 12:30:44;;;;;;;5.50;2.70;;;13.30;99.90;;;;;;4937037;28;88490;-32
2022/11/06 12:33:22;;;;;;;3.65;2.63;;;13.40;99.90;;;;;;4936921;28;89808;-30
2022/11/06 12:35:59;;;;;;;3.72;2.33;;;13.40;99.90;;;;;;4935861;28;89781;-30
2022/11/06 12:38:43;;;;;;;8.25;2.20;;;13.30;99.90;;;;;;4936544;28;91038;-30
2022/11/06 12:41:33;;;;;;;5.75;2.55;;;13.20;99.90;;;;;;4936696;28;89677;-30
2022/11/06 12:43:58;;;;;;;5.97;2.85;;;13.20;99.90;;;;;;4925863;28;90056;-29
2022/11/06 12:46:36;;;;;;;3.22;1.92;;;13.20;99.90;;;;;;4937076;28;89679;-29
2022/11/06 12:49:32;;;;;;;3.38;2.35;;;13.40;99.90;;;;;;4931623;28;90364;-29
2022/11/06 12:52:39;;;;;;;4.22;2.75;;;13.30;99.90;;;;;;4930628;28;90518;-28
2022/11/06 12:55:16;;;;;;;7.40;3.20;;;13.20;99.90;;;;;;4935639;28;90123;-30
2022/11/06 12:58:06;;;;;;;3.70;2.55;;;13.20;99.90;;;;;;4940284;28;88198;-30
2022/11/06 13:00:49;;;;;;;4.22;2.30;;;13.30;99.90;;;;;;4939021;28;90406;-30
2022/11/06 13:03:27;;;;;;;7.75;2.75;;;13.30;99.90;;;;;;4938961;28;91855;-28
2022/11/06 13:06:13;;;;;;;7.57;3.08;;;13.20;99.90;;;;;;4939903;28;91483;-29
2022/11/06 13:08:52;;;;;;;8.73;3.40;;;13.20;99.90;;;;;;4940226;28;89362;-30
2022/11/06 13:11:49;;;;;;;2.53;2.13;;;13.20;99.90;;;;;;4939697;28;89849;-31
2022/11/06 13:14:18;;;;;;;8.02;2.45;;;13.20;99.90;;;;;;4939369;28;90184;-30
2022/11/06 13:16:56;;;;;;;4.75;2.53;;;13.10;99.90;;;;;;4939292;28;89134;-33
2022/11/06 13:19:40;;;;;;;5.10;2.70;;;13.00;99.90;;;;;;4940601;28;89625;-32
2022/11/06 13:22:26;;;;;;;8.65;2.45;;;13.00;99.90;;;;;;4940217;28;90298;-31
2022/11/06 13:25:07;;;;;;;6.28;2.65;;;12.90;99.90;;;;;;4934756;28;89484;-31